Time;durP1;ratioP1;P1;durP2;ratioP2;P2;SDS_P1;SDS_P2;PMS_P1;PMS_P2;Temp;Humidity;BMP_temperature;BMP_pressure;BME280_temperature;BME280_humidity;BME280_pressure;Samples;Min_cycle;Max_cycle;Signal;HPM_P1;HPM_P2
2022/10/22 00:01:50;;;;;;;0.80;0.45;;;12.60;99.90;;;12.13;100.00;97035.69;4983778;28;20033;-47
2022/10/22 00:04:16;;;;;;;0.80;0.30;;;12.60;99.90;;;12.12;100.00;97033.13;4982185;28;20490;-49
2022/10/22 00:06:43;;;;;;;1.05;0.40;;;12.60;99.90;;;12.09;100.00;97043.84;4982811;28;20083;-48
2022/10/22 00:09:11;;;;;;;0.50;0.43;;;12.60;99.90;;;12.09;100.00;97034.13;4982618;28;20036;-46
2022/10/22 00:11:37;;;;;;;0.38;0.30;;;12.50;99.90;;;12.10;100.00;97029.72;4982263;28;20495;-45
2022/10/22 00:14:03;;;;;;;0.45;0.30;;;12.50;99.90;;;12.12;100.00;97025.19;4979686;28;20129;-47
2022/10/22 00:16:29;;;;;;;1.17;0.40;;;12.50;99.90;;;12.12;100.00;97025.19;4981762;28;20105;-48
2022/10/22 00:18:55;;;;;;;1.75;0.43;;;12.50;99.90;;;12.09;100.00;97018.25;4976782;28;20088;-44
2022/10/22 00:21:20;;;;;;;1.75;0.30;;;12.50;99.90;;;12.12;100.00;97018.13;4982838;28;20128;-48
2022/10/22 00:23:46;;;;;;;1.95;0.30;;;12.60;99.90;;;12.12;100.00;97017.25;4979964;28;20096;-47
2022/10/22 00:26:12;;;;;;;1.80;0.30;;;12.60;99.90;;;12.13;100.00;97025.13;4982747;28;20484;-47
2022/10/22 00:28:38;;;;;;;2.13;0.40;;;12.50;99.90;;;12.09;100.00;97006.84;4980246;28;20030;-46
2022/10/22 00:31:04;;;;;;;0.95;0.30;;;12.50;99.90;;;12.11;100.00;97019.03;4979100;28;20458;-47
2022/10/22 00:33:30;;;;;;;0.82;0.20;;;12.50;99.90;;;12.11;100.00;97024.31;4970584;28;20037;-46
2022/10/22 00:35:56;;;;;;;0.35;0.25;;;12.50;99.90;;;12.12;100.00;97035.78;4962047;28;20546;-45
2022/10/22 00:38:23;;;;;;;2.20;0.30;;;12.50;99.90;;;12.13;100.00;97034.81;4967839;28;20041;-47
2022/10/22 00:40:48;;;;;;;0.20;0.20;;;12.60;99.90;;;12.13;100.00;97029.53;4968334;28;20042;-45
2022/10/22 00:43:17;;;;;;;0.77;0.30;;;12.60;99.90;;;12.15;100.00;97032.94;4966839;28;20033;-44
2022/10/22 00:45:44;;;;;;;5.82;0.50;;;12.60;99.90;;;12.15;100.00;97032.94;4964221;28;20030;-46
2022/10/22 00:48:24;;;;;;;0.30;0.30;;;12.60;99.90;;;12.14;100.00;97028.63;4976362;28;20070;-47
2022/10/22 00:51:05;;;;;;;0.45;0.30;;;12.60;99.90;;;12.10;100.00;97025.28;4954916;28;20091;-44
2022/10/22 00:53:52;;;;;;;0.77;0.30;;;12.60;99.90;;;12.14;100.00;97021.53;4967025;28;20034;-49
2022/10/22 00:56:19;;;;;;;1.80;0.93;;;12.60;99.90;;;12.13;100.00;97024.25;4941774;28;20034;-45
2022/10/22 00:58:51;;;;;;;1.30;0.40;;;12.60;99.90;;;12.12;100.00;97014.63;4961952;28;20038;-48
2022/10/22 01:01:26;;;;;;;1.45;0.40;;;12.60;99.90;;;12.10;100.00;97012.06;4947276;28;20438;-48
2022/10/22 01:03:52;;;;;;;3.78;0.32;;;12.60;99.90;;;11.98;100.00;96986.22;4964726;28;20547;-47
2022/10/22 01:06:31;;;;;;;0.75;0.35;;;12.60;99.90;;;12.15;100.00;97022.38;4941829;28;20061;-49
2022/10/22 01:09:31;;;;;;;0.20;0.20;;;12.60;99.90;;;12.12;100.00;97017.25;4949454;28;20044;-47
2022/10/22 01:12:35;;;;;;;1.10;0.40;;;12.60;99.90;;;12.10;100.00;97003.28;4978006;28;20534;-49
2022/10/22 01:15:37;;;;;;;0.47;0.30;;;12.60;99.90;;;12.12;100.00;96996.13;4958422;28;20755;-47
2022/10/22 01:21:58;;;;;;;2.65;0.38;;;12.60;99.90;;;12.10;100.00;96988.25;4977596;28;20490;-47
2022/10/22 01:25:16;;;;;;;0.30;0.28;;;12.60;99.90;;;12.14;100.00;96976.59;4937329;28;20030;-45
2022/10/22 01:28:12;;;;;;;1.95;0.40;;;12.60;99.90;;;12.10;100.00;96971.56;4947333;28;20059;-47
2022/10/22 01:30:39;;;;;;;0.30;0.25;;;12.60;99.90;;;12.08;100.00;96957.53;4949754;28;20031;-48
2022/10/22 01:33:09;;;;;;;0.63;0.30;;;12.50;99.90;;;11.93;100.00;96933.59;4936833;28;21202;-48
2022/10/22 01:35:41;;;;;;;0.65;0.40;;;12.50;99.90;;;12.05;100.00;96966.50;4967149;28;20052;-44
2022/10/22 01:38:12;;;;;;;1.33;0.50;;;12.50;99.90;;;12.01;100.00;96994.00;4948711;28;20092;-48
2022/10/22 01:40:38;;;;;;;0.93;0.40;;;12.50;99.90;;;12.02;100.00;96996.59;4943525;28;20349;-46
2022/10/22 01:43:08;;;;;;;1.65;0.50;;;12.50;99.90;;;12.06;100.00;96999.03;4962995;28;20022;-45
2022/10/22 01:45:43;;;;;;;1.30;0.52;;;12.50;99.90;;;12.05;100.00;96995.56;4963697;28;20041;-48
2022/10/22 01:48:29;;;;;;;1.05;0.52;;;12.50;99.90;;;12.00;100.00;96992.28;4943552;28;20034;-48
2022/10/22 01:51:40;;;;;;;1.15;0.52;;;12.50;99.90;;;12.05;100.00;97005.28;4947173;28;20065;-47
2022/10/22 01:54:23;;;;;;;1.00;0.40;;;12.50;99.90;;;12.02;100.00;97004.50;4965431;28;20484;-45
2022/10/22 01:57:16;;;;;;;2.58;1.23;;;12.50;99.90;;;12.04;100.00;97001.75;4970998;28;20266;-47
2022/10/22 02:00:07;;;;;;;0.63;0.38;;;12.50;99.90;;;12.02;100.00;97006.28;4951512;28;20042;-48
2022/10/22 02:02:41;;;;;;;2.88;0.68;;;12.50;99.90;;;12.03;100.00;97010.66;4966881;28;20026;-44
2022/10/22 02:05:18;;;;;;;0.50;0.50;;;12.50;99.90;;;12.04;100.00;97009.69;4967426;28;20518;-44
2022/10/22 02:08:11;;;;;;;0.50;0.40;;;12.50;99.90;;;12.02;100.00;97009.78;4954617;28;20037;-48
2022/10/22 02:10:40;;;;;;;2.42;0.57;;;12.50;99.90;;;12.05;100.00;97022.00;4961519;28;20052;-48
2022/10/22 02:13:14;;;;;;;0.65;0.30;;;12.50;99.90;;;12.05;100.00;97032.56;4959700;28;20038;-47
2022/10/22 02:15:44;;;;;;;0.60;0.50;;;12.50;99.90;;;12.07;100.00;97035.13;4954015;28;20148;-49
2022/10/22 02:18:11;;;;;;;0.68;0.30;;;12.50;99.90;;;12.07;100.00;97025.41;4947580;28;21700;-47
2022/10/22 02:20:40;;;;;;;0.40;0.40;;;12.50;99.90;;;12.07;100.00;97019.28;4980754;28;20030;-48
2022/10/22 02:23:07;;;;;;;1.48;0.20;;;12.50;99.90;;;12.05;100.00;97011.41;4953906;28;20121;-48
2022/10/22 02:25:40;;;;;;;1.02;0.50;;;12.50;99.90;;;12.00;100.00;97014.28;4960045;28;20117;-49
2022/10/22 02:28:20;;;;;;;0.40;0.40;;;12.50;99.90;;;12.06;100.00;97017.56;4973139;28;20022;-49
2022/10/22 02:30:58;;;;;;;0.85;0.45;;;12.50;99.90;;;12.04;100.00;97012.34;4950648;28;20129;-50
2022/10/22 02:33:36;;;;;;;0.57;0.40;;;12.50;99.90;;;12.01;100.00;97010.72;4969871;28;20038;-49
2022/10/22 02:36:04;;;;;;;0.57;0.40;;;12.50;99.90;;;12.01;100.00;97010.72;4988716;28;20041;-48
2022/10/22 02:38:31;;;;;;;1.45;0.40;;;12.50;99.90;;;12.02;100.00;97015.09;4956164;28;20037;-46
2022/10/22 02:40:57;;;;;;;1.63;0.43;;;12.50;99.90;;;11.99;100.00;97020.50;4960159;28;20026;-46
2022/10/22 02:43:24;;;;;;;3.78;0.52;;;12.50;99.90;;;12.00;100.00;97019.56;4976958;28;20112;-45
2022/10/22 02:45:50;;;;;;;0.38;0.32;;;12.50;99.90;;;11.98;100.00;97021.41;4971511;28;20117;-47
2022/10/22 02:48:16;;;;;;;0.65;0.30;;;12.40;99.90;;;11.97;100.00;97021.50;4978993;28;21824;-47
2022/10/22 02:50:41;;;;;;;0.90;0.50;;;12.40;99.90;;;11.99;100.00;97009.09;4981299;28;20034;-46
2022/10/22 02:53:07;;;;;;;1.38;0.50;;;12.40;99.90;;;11.99;100.00;97014.38;4971759;28;20041;-47
2022/10/22 02:55:33;;;;;;;0.47;0.40;;;12.50;99.90;;;11.94;100.00;97006.66;4969623;28;20076;-45
2022/10/22 02:57:59;;;;;;;1.20;0.40;;;12.50;99.90;;;11.97;100.00;97022.38;4970794;28;20555;-48
2022/10/22 03:00:24;;;;;;;0.50;0.30;;;12.40;99.90;;;11.98;100.00;97023.22;4971226;28;20072;-47
2022/10/22 03:02:50;;;;;;;3.53;0.57;;;12.40;99.90;;;11.83;100.00;96986.00;4971229;28;20084;-47
2022/10/22 03:05:16;;;;;;;0.77;0.45;;;12.40;99.90;;;12.02;100.00;97006.28;4968263;28;20034;-46
2022/10/22 03:07:41;;;;;;;0.82;0.40;;;12.50;99.90;;;12.02;100.00;96995.69;4970637;28;20034;-48
2022/10/22 03:10:08;;;;;;;3.92;0.60;;;12.50;99.90;;;12.06;100.00;96991.13;4984091;28;20117;-48
2022/10/22 03:12:33;;;;;;;1.85;0.50;;;12.50;99.90;;;12.08;100.00;96995.41;4983299;28;20029;-47
2022/10/22 03:14:59;;;;;;;1.58;0.40;;;12.50;99.90;;;12.06;100.00;96994.63;4988002;28;20041;-48
2022/10/22 03:17:25;;;;;;;0.70;0.47;;;12.50;99.90;;;12.10;100.00;97005.91;4978210;28;20041;-45
2022/10/22 03:19:50;;;;;;;1.40;0.43;;;12.60;99.90;;;12.10;100.00;97000.63;4971337;28;20090;-48
2022/10/22 03:22:23;;;;;;;3.42;0.50;;;12.50;99.90;;;12.06;100.00;96985.84;4989137;28;20057;-48
2022/10/22 03:24:56;;;;;;;4.90;0.60;;;12.50;99.90;;;12.09;100.00;96996.25;4983770;28;20034;-47
2022/10/22 03:27:22;;;;;;;2.05;0.50;;;12.50;99.90;;;12.08;100.00;96990.13;4968013;28;20031;-48
2022/10/22 03:29:50;;;;;;;0.40;0.40;;;12.50;99.90;;;12.10;100.00;96993.56;4968394;28;20041;-48
2022/10/22 03:32:16;;;;;;;3.00;0.30;;;12.60;99.90;;;12.11;100.00;96997.03;4953139;28;20310;-47
2022/10/22 03:34:42;;;;;;;0.68;0.30;;;12.60;99.90;;;12.08;100.00;96991.91;4971721;28;20083;-49
2022/10/22 03:37:07;;;;;;;2.30;0.40;;;12.60;99.90;;;12.11;100.00;97002.31;4963635;28;20321;-46
2022/10/22 03:39:34;;;;;;;1.10;0.40;;;12.50;99.90;;;12.02;100.00;96982.47;4969728;28;20037;-47
2022/10/22 03:42:01;;;;;;;0.50;0.40;;;12.50;99.90;;;12.07;100.00;96991.06;4940917;28;20120;-48
2022/10/22 03:44:27;;;;;;;0.75;0.32;;;12.50;99.90;;;12.06;100.00;96988.47;4951922;28;20037;-47
2022/10/22 03:49:21;;;;;;;0.32;0.30;;;12.50;99.90;;;12.00;100.00;96998.41;4968303;28;20411;-57
2022/10/22 03:51:46;;;;;;;0.85;0.38;;;12.40;99.90;;;11.99;100.00;97004.66;4975072;28;20034;-57
2022/10/22 03:54:12;;;;;;;4.53;0.40;;;12.40;99.90;;;11.82;100.00;96992.22;4973220;28;20476;-57
2022/10/22 03:56:38;;;;;;;1.02;0.47;;;12.40;99.90;;;11.95;100.00;97021.59;4976890;28;20512;-57
2022/10/22 03:59:04;;;;;;;0.47;0.45;;;12.40;99.90;;;11.94;100.00;97016.38;4973712;28;20767;-58
2022/10/22 04:01:30;;;;;;;0.60;0.40;;;12.40;99.90;;;11.93;100.00;97010.22;4971398;28;20033;-58
2022/10/22 04:03:56;;;;;;;2.30;0.28;;;12.40;99.90;;;11.95;100.00;97013.66;4965403;28;20050;-57
2022/10/22 04:06:22;;;;;;;0.95;0.50;;;12.40;99.90;;;11.90;100.00;97001.56;4967515;28;20030;-57
2022/10/22 04:08:48;;;;;;;0.90;0.30;;;12.40;99.90;;;11.94;100.00;97003.16;4973090;28;20072;-57
2022/10/22 04:11:15;;;;;;;0.52;0.40;;;12.40;99.90;;;11.91;100.00;97008.59;4951300;28;20042;-57
2022/10/22 04:13:42;;;;;;;2.63;0.50;;;12.40;99.90;;;11.90;100.00;97030.63;4953616;28;20040;-57
2022/10/22 04:16:14;;;;;;;0.65;0.45;;;12.30;99.90;;;11.88;100.00;97041.28;4971794;28;20097;-57
2022/10/22 04:18:40;;;;;;;0.63;0.40;;;12.30;99.90;;;11.86;100.00;97029.91;4957693;28;20038;-57
2022/10/22 04:21:08;;;;;;;2.03;0.47;;;12.30;99.90;;;11.86;100.00;97035.19;4971888;28;20358;-58
2022/10/22 04:23:34;;;;;;;1.45;0.50;;;12.30;99.90;;;11.81;100.00;97029.28;4988792;28;20042;-58
2022/10/22 04:26:03;;;;;;;1.55;0.45;;;12.30;99.90;;;11.85;100.00;97025.56;4984897;28;20042;-57
2022/10/22 04:28:29;;;;;;;0.80;0.32;;;12.30;99.90;;;11.84;100.00;97023.84;4975845;28;20057;-58
2022/10/22 04:30:55;;;;;;;1.98;0.50;;;12.30;99.90;;;11.81;100.00;97016.94;4974806;28;20064;-57
2022/10/22 04:33:21;;;;;;;2.67;0.47;;;12.30;99.90;;;11.81;100.00;97024.00;4986522;28;20464;-57
2022/10/22 04:35:47;;;;;;;0.50;0.45;;;12.30;99.90;;;11.79;100.00;97016.16;4965026;28;20045;-57
2022/10/22 04:38:14;;;;;;;0.90;0.40;;;12.30;99.90;;;11.77;100.00;97011.84;4975068;28;20557;-57
2022/10/22 04:40:39;;;;;;;0.40;0.30;;;12.20;99.90;;;11.75;100.00;97022.50;4971651;28;20030;-56
2022/10/22 04:43:05;;;;;;;4.63;0.40;;;12.20;99.90;;;11.77;100.00;97020.66;4969837;28;24239;-57
2022/10/22 04:45:34;;;;;;;4.85;0.47;;;12.20;99.90;;;11.78;100.00;97024.16;4966997;28;20481;-57
2022/10/22 04:48:00;;;;;;;1.05;0.32;;;12.30;99.90;;;11.81;100.00;97030.16;4967035;28;20034;-56
2022/10/22 04:50:26;;;;;;;1.15;0.45;;;12.30;99.90;;;11.82;100.00;97033.63;4970899;28;20030;-56
2022/10/22 04:52:52;;;;;;;0.40;0.38;;;12.30;99.90;;;11.74;100.00;97014.66;4971737;28;20037;-57
2022/10/22 04:55:17;;;;;;;0.82;0.40;;;12.30;99.90;;;11.86;100.00;97029.91;4977590;28;20125;-56
2022/10/22 04:57:43;;;;;;;1.48;0.73;;;12.30;99.90;;;11.89;100.00;97027.13;4970721;28;21547;-56
2022/10/22 05:00:10;;;;;;;1.48;0.52;;;12.30;99.90;;;11.89;100.00;97031.56;4968406;28;20091;-56
2022/10/22 05:02:36;;;;;;;1.13;0.40;;;12.30;99.90;;;11.93;100.00;97034.00;4970150;28;20393;-57
2022/10/22 05:05:02;;;;;;;2.50;0.55;;;12.40;99.90;;;11.93;100.00;97038.44;4974558;28;20037;-56
2022/10/22 05:07:27;;;;;;;2.83;0.45;;;12.40;99.90;;;11.95;100.00;97040.09;4957328;28;20065;-56
2022/10/22 05:09:53;;;;;;;0.90;0.40;;;12.40;99.90;;;11.98;100.00;97032.00;4987432;28;20072;-57
2022/10/22 05:12:19;;;;;;;0.63;0.40;;;12.50;99.90;;;12.02;100.00;97038.88;4980897;28;20476;-56
2022/10/22 05:14:44;;;;;;;3.85;0.57;;;12.50;99.90;;;12.07;100.00;97038.63;4986999;28;20033;-56
2022/10/22 05:17:10;;;;;;;0.32;0.32;;;12.50;99.90;;;12.09;100.00;97038.56;4981031;28;20100;-56
2022/10/22 05:19:36;;;;;;;3.90;0.60;;;12.50;99.90;;;12.13;100.00;97041.00;4986951;28;20057;-57
2022/10/22 05:22:03;;;;;;;0.65;0.38;;;12.60;99.90;;;12.15;100.00;97049.69;4990796;28;20451;-56
2022/10/22 05:24:31;;;;;;;2.28;0.75;;;12.60;99.90;;;12.17;100.00;97050.47;4988855;28;20036;-57
2022/10/22 05:26:59;;;;;;;2.67;0.80;;;12.60;99.90;;;12.20;100.00;97054.72;4979652;28;20038;-57
2022/10/22 05:29:26;;;;;;;4.40;0.95;;;12.60;99.90;;;12.15;100.00;97062.91;4987375;28;20026;-57
2022/10/22 05:31:52;;;;;;;0.90;0.40;;;12.60;99.90;;;12.13;100.00;97066.53;4987629;28;20057;-57
2022/10/22 05:34:18;;;;;;;1.00;0.40;;;12.60;99.90;;;12.14;100.00;97089.41;4982899;28;20026;-57
2022/10/22 05:36:44;;;;;;;1.52;0.40;;;12.60;99.90;;;12.12;100.00;97088.63;4983717;28;20040;-57
2022/10/22 05:39:09;;;;;;;0.38;0.30;;;12.60;99.90;;;12.10;100.00;97099.28;4986524;28;20188;-56
2022/10/22 05:41:36;;;;;;;0.50;0.50;;;12.60;99.90;;;12.08;100.00;97105.56;4986244;28;20041;-57
2022/10/22 05:44:02;;;;;;;0.65;0.40;;;12.60;99.90;;;12.10;100.00;97111.66;4985577;28;20511;-57
2022/10/22 05:46:33;;;;;;;0.20;0.20;;;12.50;99.90;;;12.08;100.00;97119.66;4982476;28;20068;-57
2022/10/22 05:49:02;;;;;;;1.00;0.50;;;12.50;99.90;;;12.06;100.00;97120.63;4981682;28;20022;-57
2022/10/22 05:51:32;;;;;;;0.22;0.20;;;12.50;99.90;;;12.03;100.00;97127.78;4985107;28;20140;-57
2022/10/22 05:54:01;;;;;;;0.98;0.40;;;12.50;99.90;;;11.99;100.00;97139.44;4984473;28;20088;-57
2022/10/22 05:56:29;;;;;;;0.43;0.40;;;12.40;99.90;;;11.96;100.00;97139.56;4981675;28;20053;-57
2022/10/22 05:58:56;;;;;;;2.65;0.50;;;12.40;99.90;;;11.96;100.00;97144.00;4981556;28;20044;-57
2022/10/22 06:01:27;;;;;;;2.40;0.50;;;12.40;99.90;;;11.96;100.00;97144.00;4981332;28;20069;-57
2022/10/22 06:03:55;;;;;;;1.50;0.57;;;12.40;99.90;;;11.92;100.00;97147.72;4982536;28;20057;-57
2022/10/22 06:06:41;;;;;;;0.50;0.40;;;12.40;99.90;;;11.89;100.00;97143.38;4985221;28;20032;-57
2022/10/22 06:09:27;;;;;;;0.70;0.40;;;12.40;99.90;;;11.89;100.00;97155.75;4978756;28;20034;-57
2022/10/22 06:11:54;;;;;;;1.85;0.60;;;12.30;99.90;;;11.83;100.00;97144.53;4983056;28;20091;-57
2022/10/22 06:14:21;;;;;;;0.80;0.30;;;12.30;99.90;;;11.83;100.00;97167.47;4975561;28;20038;-57
2022/10/22 06:16:47;;;;;;;0.68;0.45;;;12.30;99.90;;;11.87;100.00;97165.53;4984380;28;20056;-57
2022/10/22 06:19:15;;;;;;;1.20;0.55;;;12.30;99.90;;;11.82;100.00;97165.75;4992934;28;20072;-57
2022/10/22 06:21:41;;;;;;;1.35;0.70;;;12.30;99.90;;;11.84;100.00;97170.03;4985519;28;20029;-57
2022/10/22 06:24:09;;;;;;;1.83;0.50;;;12.30;99.90;;;11.86;100.00;97169.94;4978706;28;20030;-57
2022/10/22 06:26:35;;;;;;;0.88;0.60;;;12.30;99.90;;;11.85;100.00;97162.97;4956782;28;20123;-57
2022/10/22 06:29:01;;;;;;;2.05;0.50;;;12.30;99.90;;;11.85;100.00;97163.81;4976775;28;20179;-57
2022/10/22 06:31:28;;;;;;;1.35;0.45;;;12.40;99.90;;;11.93;100.00;97183.78;4980746;28;20057;-57
2022/10/22 06:33:56;;;;;;;1.40;0.52;;;12.40;99.90;;;11.91;100.00;97183.84;4981221;28;20041;-57
2022/10/22 06:36:23;;;;;;;0.90;0.57;;;12.40;99.90;;;11.98;100.00;97184.44;4955166;28;20026;-57
2022/10/22 06:38:53;;;;;;;0.60;0.50;;;12.40;99.90;;;12.00;100.00;97196.63;4971771;28;20084;-57
2022/10/22 06:41:20;;;;;;;0.45;0.30;;;12.40;99.90;;;12.02;100.00;97202.72;4976582;28;20042;-57
2022/10/22 06:43:46;;;;;;;2.15;0.50;;;12.40;99.90;;;12.05;100.00;97200.88;4983212;28;20046;-57
2022/10/22 06:46:15;;;;;;;1.27;0.52;;;12.50;99.90;;;12.05;100.00;97203.50;4957302;28;20484;-57
2022/10/22 06:48:42;;;;;;;0.82;0.40;;;12.50;99.90;;;12.05;100.00;97198.22;4973825;28;20038;-57
2022/10/22 06:51:10;;;;;;;0.82;0.30;;;12.50;99.90;;;12.06;100.00;97206.09;4968852;28;20033;-57
2022/10/22 06:53:38;;;;;;;0.30;0.30;;;12.50;99.90;;;12.10;100.00;97212.94;4972821;28;20148;-57
2022/10/22 06:56:06;;;;;;;1.17;0.47;;;12.50;99.90;;;12.19;100.00;97215.16;4972183;28;20030;-57
2022/10/22 06:58:32;;;;;;;1.10;0.60;;;12.60;99.90;;;12.26;100.00;97218.38;4964556;28;20510;-57
2022/10/22 07:01:07;;;;;;;1.08;0.73;;;12.70;99.90;;;12.36;100.00;97224.97;4968467;28;20057;-57
2022/10/22 07:03:34;;;;;;;0.98;0.68;;;12.80;99.90;;;12.48;100.00;97226.16;4972084;28;20061;-57
2022/10/22 07:06:06;;;;;;;2.22;0.60;;;12.90;99.90;;;12.59;100.00;97233.56;4952355;28;20721;-57
2022/10/22 07:08:33;;;;;;;0.65;0.50;;;13.00;99.90;;;12.72;100.00;97242.66;4976389;28;20111;-57
2022/10/22 07:11:12;;;;;;;0.82;0.60;;;13.20;99.90;;;12.82;100.00;97239.56;4973590;28;20040;-56
2022/10/22 07:13:38;;;;;;;1.73;0.65;;;13.30;99.90;;;12.93;100.00;97237.25;4980399;28;20034;-57
2022/10/22 07:16:06;;;;;;;0.40;0.40;;;13.40;99.90;;;13.01;100.00;97243.03;4971298;28;23820;-57
2022/10/22 07:18:33;;;;;;;1.40;0.43;;;13.50;99.90;;;13.09;100.00;97240.00;4977494;28;20104;-56
2022/10/22 07:20:59;;;;;;;0.68;0.40;;;13.60;99.90;;;13.20;100.00;97242.09;4980594;28;20049;-57
2022/10/22 07:23:27;;;;;;;1.13;0.60;;;13.60;99.90;;;13.29;100.00;97237.19;4967991;28;20400;-57
2022/10/22 07:25:53;;;;;;;0.63;0.50;;;13.70;99.90;;;13.41;100.00;97254.31;4981567;28;20141;-57
2022/10/22 07:28:18;;;;;;;1.05;0.73;;;13.80;99.90;;;13.47;100.00;97246.03;4982051;28;20400;-56
2022/10/22 07:30:45;;;;;;;0.82;0.70;;;13.90;99.90;;;13.51;100.00;97260.84;4985387;28;20215;-57
2022/10/22 07:33:10;;;;;;;0.60;0.60;;;14.00;99.90;;;13.51;100.00;97260.84;4983597;28;20057;-57
2022/10/22 07:35:38;;;;;;;4.22;0.93;;;13.90;99.90;;;13.55;100.00;97262.41;4984123;28;20089;-57
2022/10/22 07:38:05;;;;;;;0.80;0.60;;;14.00;99.90;;;13.64;100.00;97268.16;4970376;28;20184;-57
2022/10/22 07:40:31;;;;;;;1.35;0.80;;;14.00;99.90;;;13.71;100.00;97269.56;4984427;28;20618;-57
2022/10/22 07:42:57;;;;;;;2.53;0.57;;;14.10;99.90;;;13.74;100.00;97264.09;4987369;28;21050;-57
2022/10/22 07:45:22;;;;;;;0.57;0.50;;;14.20;99.90;;;13.86;100.00;97271.41;4977064;28;20483;-57
2022/10/22 07:47:48;;;;;;;0.88;0.60;;;14.30;99.90;;;13.93;100.00;97277.25;4981172;28;20184;-56
2022/10/22 07:50:15;;;;;;;1.67;0.77;;;14.30;99.90;;;14.00;100.00;97280.44;4979563;28;20577;-58
2022/10/22 07:52:41;;;;;;;0.98;0.68;;;14.40;99.90;;;14.03;100.00;97282.94;4986965;28;20034;-56
2022/10/22 07:55:07;;;;;;;2.58;0.63;;;14.40;99.90;;;14.08;100.00;97281.75;4981509;28;20044;-56
2022/10/22 07:57:34;;;;;;;0.35;0.32;;;14.50;99.90;;;14.11;100.00;97291.34;4963364;28;21407;-57
2022/10/22 07:59:59;;;;;;;0.95;0.60;;;14.50;99.90;;;14.17;100.00;97298.97;4981064;28;20042;-57
2022/10/22 08:02:25;;;;;;;1.63;0.45;;;14.50;99.90;;;14.19;100.00;97294.44;4978769;28;20191;-57
2022/10/22 08:04:51;;;;;;;6.30;1.10;;;14.60;99.90;;;14.18;100.00;97287.44;4981138;28;20029;-57
2022/10/22 08:07:17;;;;;;;3.00;1.08;;;14.60;99.90;;;14.19;100.00;97302.38;4973096;28;20034;-57
2022/10/22 08:09:43;;;;;;;1.85;0.70;;;14.60;99.90;;;14.22;100.00;97288.13;4981302;28;20064;-57
2022/10/22 08:12:09;;;;;;;1.52;0.80;;;14.60;99.90;;;14.25;100.00;97299.44;4981700;28;20483;-56
2022/10/22 08:14:35;;;;;;;2.22;0.80;;;14.60;99.90;;;14.27;100.00;97296.69;4973782;28;20144;-57
2022/10/22 08:17:01;;;;;;;1.92;0.80;;;14.60;99.90;;;14.23;100.00;97298.66;4982641;28;20164;-57
2022/10/22 08:19:28;;;;;;;1.77;0.63;;;14.60;99.90;;;14.17;100.00;97293.66;4984797;28;20068;-57
2022/10/22 08:21:54;;;;;;;2.70;0.93;;;14.50;99.90;;;14.08;100.00;97304.75;4985805;28;20514;-57
2022/10/22 08:24:19;;;;;;;3.83;1.58;;;14.40;99.90;;;13.98;100.00;97309.69;4981616;28;20038;-57
2022/10/22 08:26:45;;;;;;;2.85;1.30;;;14.30;99.90;;;13.87;100.00;97302.31;4986461;28;20034;-57
2022/10/22 08:29:12;;;;;;;2.45;1.10;;;14.30;99.90;;;13.80;100.00;97300.03;4983828;28;20057;-57
2022/10/22 08:31:38;;;;;;;3.85;0.90;;;14.20;99.90;;;13.76;100.00;97301.97;4971347;28;20589;-57
2022/10/22 08:34:04;;;;;;;0.70;0.65;;;14.10;99.90;;;13.78;100.00;97305.41;4984882;28;20091;-57
2022/10/22 08:36:30;;;;;;;1.40;0.90;;;14.20;99.90;;;13.81;100.00;97299.09;4987751;28;21713;-57
2022/10/22 08:38:56;;;;;;;1.05;0.88;;;14.30;99.90;;;13.82;100.00;97304.34;4993043;28;20030;-57
2022/10/22 08:41:23;;;;;;;1.55;0.85;;;14.30;99.90;;;13.87;100.00;97304.97;4982503;28;20470;-57
2022/10/22 08:44:10;;;;;;;1.27;0.55;;;14.30;99.90;;;13.91;100.00;97301.19;4983276;28;20044;-57
2022/10/22 08:46:51;;;;;;;0.65;0.60;;;14.40;99.90;;;13.99;100.00;97305.25;4989800;28;20026;-57
2022/10/22 08:49:35;;;;;;;1.05;0.47;;;14.40;99.90;;;14.04;100.00;97309.38;4991915;28;20061;-57
2022/10/22 08:52:01;;;;;;;2.00;0.93;;;14.50;99.90;;;14.02;100.00;97305.09;4984594;28;20039;-57
2022/10/22 08:54:52;;;;;;;3.90;0.68;;;14.50;99.90;;;13.99;100.00;97308.75;4971663;28;20026;-57
2022/10/22 08:57:32;;;;;;;1.25;0.90;;;14.50;99.90;;;14.03;100.00;97305.03;4994500;28;20527;-57
2022/10/22 09:00:18;;;;;;;2.67;0.80;;;14.50;99.90;;;14.09;100.00;97311.78;4992228;28;20068;-57
2022/10/22 09:03:23;;;;;;;0.70;0.60;;;14.50;99.90;;;14.18;100.00;97313.09;4991634;28;20076;-57
2022/10/22 09:06:12;;;;;;;1.70;0.50;;;14.60;99.90;;;14.25;100.00;97314.50;4994310;28;20037;-57
2022/10/22 09:08:41;;;;;;;0.85;0.60;;;14.70;99.90;;;14.35;100.00;97315.69;4980981;28;20054;-58
2022/10/22 09:11:10;;;;;;;3.85;0.70;;;14.80;99.90;;;14.42;100.00;97322.38;4989767;28;20030;-58
2022/10/22 09:13:36;;;;;;;5.20;0.80;;;14.90;99.90;;;14.55;100.00;97330.53;4989672;28;20124;-58
2022/10/22 09:16:30;;;;;;;2.42;0.57;;;15.00;99.90;;;14.70;100.00;97327.09;4991738;28;20034;-58
2022/10/22 09:19:47;;;;;;;0.52;0.52;;;15.10;99.90;;;14.85;100.00;97324.53;4973195;28;20056;-58
2022/10/22 09:22:27;;;;;;;1.80;0.40;;;15.30;99.90;;;14.96;100.00;97327.44;4968668;28;20610;-58
2022/10/22 09:25:18;;;;;;;1.25;0.63;;;15.40;99.90;;;15.11;100.00;97336.38;4990599;28;20543;-58
2022/10/22 09:27:44;;;;;;;5.07;0.63;;;15.50;99.90;;;15.20;100.00;97327.88;4992736;28;20467;-58
2022/10/22 09:30:23;;;;;;;1.67;0.57;;;15.70;99.90;;;15.35;100.00;97326.13;4990421;28;20038;-57
2022/10/22 09:33:18;;;;;;;0.50;0.45;;;15.80;99.90;;;15.50;100.00;97335.03;4990188;28;20030;-58
2022/10/22 09:35:53;;;;;;;0.60;0.57;;;15.90;99.90;;;15.55;100.00;97335.63;4991572;28;20725;-58
2022/10/22 09:38:26;;;;;;;2.83;0.40;;;16.00;99.90;;;15.64;100.00;97328.91;4989885;28;20051;-57
2022/10/22 09:40:56;;;;;;;1.15;0.50;;;16.20;99.90;;;15.74;100.00;97340.75;4990201;28;20029;-57
2022/10/22 09:43:22;;;;;;;1.15;0.70;;;16.20;99.90;;;15.78;100.00;97339.63;4990874;28;20050;-57
2022/10/22 09:45:56;;;;;;;0.80;0.50;;;16.20;99.90;;;15.86;100.00;97340.97;4990179;28;20550;-56
2022/10/22 09:48:36;;;;;;;2.10;0.85;;;16.30;99.90;;;15.87;100.00;97338.22;5004686;23;20060;-45
2022/10/22 09:51:26;;;;;;;1.88;0.73;;;16.30;99.90;;;15.91;100.00;97346.88;4993034;28;20120;-48
2022/10/22 09:54:01;;;;;;;2.05;0.75;;;16.30;99.90;;;15.91;100.00;97346.88;4965452;28;20065;-46
2022/10/22 09:56:35;;;;;;;0.65;0.40;;;16.30;99.90;;;15.95;100.00;97359.03;4995015;28;20080;-48
2022/10/22 09:59:01;;;;;;;2.80;0.60;;;16.40;99.90;;;15.95;100.00;97359.03;4995106;28;20540;-48
2022/10/22 10:01:37;;;;;;;0.63;0.40;;;16.30;99.90;;;15.96;100.00;97369.59;4996907;28;20096;-48
2022/10/22 10:04:10;;;;;;;0.82;0.50;;;16.30;99.90;;;15.93;100.00;97360.94;4997785;28;20037;-49
2022/10/22 10:06:40;;;;;;;0.65;0.40;;;16.40;99.90;;;15.96;100.00;97368.75;4980133;28;20034;-48
2022/10/22 10:09:18;;;;;;;3.20;0.40;;;16.30;99.90;;;15.98;100.00;97372.16;4986767;28;20033;-45
2022/10/22 10:11:53;;;;;;;0.60;0.40;;;16.40;99.90;;;16.00;100.00;97373.78;4987219;28;20049;-47
2022/10/22 10:14:36;;;;;;;1.15;0.47;;;16.40;99.90;;;16.04;100.00;97374.44;4962624;28;20034;-45
2022/10/22 10:17:17;;;;;;;0.40;0.40;;;16.40;99.90;;;16.08;100.00;97381.31;4968684;28;20068;-46
2022/10/22 10:20:13;;;;;;;0.95;0.57;;;16.40;99.90;;;16.15;100.00;97381.78;4985050;28;20049;-48
2022/10/22 10:22:54;;;;;;;1.25;0.60;;;16.50;99.90;;;16.27;100.00;97388.19;4984693;28;20065;-45
2022/10/22 10:25:48;;;;;;;0.55;0.43;;;16.60;99.90;;;16.30;100.00;97385.34;4973458;28;20140;-48
2022/10/22 10:29:17;;;;;;;0.85;0.50;;;16.60;99.90;;;16.34;100.00;97381.56;4972073;28;20044;-48
2022/10/22 10:32:05;;;;;;;1.73;0.70;;;16.70;99.90;;;16.36;100.00;97387.63;4945931;28;20043;-50
2022/10/22 10:35:08;;;;;;;1.13;0.38;;;16.80;99.90;;;16.41;100.00;97396.19;4948280;28;20560;-45
2022/10/22 10:37:49;;;;;;;0.80;0.55;;;16.70;99.90;;;16.38;100.00;97388.38;4986343;28;20052;-49